METAR Data
IDs: Format: Raw Decoded Include TAF

Data at: 1211 UTC 26 Feb 2021

EDNY 261150Z 24005KT CAVOK 12/03 Q1030